Time;durP1;ratioP1;P1;durP2;ratioP2;P2;SDS_P1;SDS_P2;PMS_P1;PMS_P2;Temp;Humidity;BMP_temperature;BMP_pressure;BME280_temperature;BME280_humidity;BME280_pressure;Samples;Min_cycle;Max_cycle;Signal;HPM_P1;HPM_P2
2023/01/10 00:00:49;;;;;;;0.00;0.00;;;6.10;99.90;;;;;;5138983;27;20505;-88
2023/01/10 00:03:49;;;;;;;;;;;;;;;;;;;;;
2023/01/10 00:06:27;;;;;;;0.00;0.00;;;6.00;99.90;;;;;;5124735;27;20046;-89
2023/01/10 00:08:58;;;;;;;0.00;0.00;;;6.00;99.90;;;;;;5105710;27;20050;-89
2023/01/10 00:14:57;;;;;;;;;;;;;;;;;;;;;
2023/01/10 00:17:39;;;;;;;;;;;;;;;;;;;;;
2023/01/10 00:20:15;;;;;;;0.00;0.00;;;5.70;99.90;;;;;;5142248;27;20055;-89
2023/01/10 00:22:48;;;;;;;0.03;0.03;;;5.70;99.90;;;;;;5125138;27;20047;-88
2023/01/10 00:25:34;;;;;;;;;;;;;;;;;;;;;
2023/01/10 00:28:35;;;;;;;0.00;0.00;;;5.60;99.90;;;;;;5126514;27;20047;-88
2023/01/10 00:31:34;;;;;;;;;;;;;;;;;;;;;
2023/01/10 00:34:13;;;;;;;;;;;;;;;;;;;;;
2023/01/10 00:36:47;;;;;;;0.00;0.00;;;5.50;99.90;;;;;;5153627;27;20057;-88
2023/01/10 00:39:18;;;;;;;0.00;0.00;;;5.80;99.90;;;;;;5126791;27;20039;-88
2023/01/10 00:44:48;;;;;;;;;;;;;;;;;;;;;
2023/01/10 00:47:32;;;;;;;12.77;0.17;;;5.50;99.90;;;;;;5138964;27;20051;-89
2023/01/10 00:50:25;;;;;;;;;;;;;;;;;;;;;
2023/01/10 00:53:09;;;;;;;0.00;0.00;;;5.50;99.90;;;;;;5138325;27;20482;-89
2023/01/10 00:55:55;;;;;;;0.00;0.00;;;5.60;99.90;;;;;;5105439;27;20463;-89
2023/01/10 00:58:48;;;;;;;0.00;0.00;;;5.60;99.90;;;;;;5138976;27;20057;-89
2023/01/10 01:01:57;;;;;;;0.20;0.20;;;5.60;99.90;;;;;;5138258;27;20084;-88
2023/01/10 01:04:41;;;;;;;0.05;0.05;;;5.60;99.90;;;;;;5120725;27;20031;-89
2023/01/10 01:07:10;;;;;;;0.00;0.00;;;5.70;99.90;;;;;;5120411;27;20049;-89
2023/01/10 01:10:25;;;;;;;0.00;0.00;;;5.70;99.90;;;;;;5120683;27;20047;-89
2023/01/10 01:12:22;;;;;;;3.60;0.22;;;5.70;99.90;;;;;;5137296;27;20129;-89
2023/01/10 01:15:37;;;;;;;0.00;0.00;;;5.70;99.90;;;;;;5120432;27;20137;-89
2023/01/10 01:18:23;;;;;;;0.00;0.00;;;5.70;99.90;;;;;;5122313;27;20088;-89
2023/01/10 01:23:56;;;;;;;;;;;;;;;;;;;;;
2023/01/10 01:26:48;;;;;;;;;;;;;;;;;;;;;
2023/01/10 01:29:40;;;;;;;0.00;0.00;;;6.00;99.90;;;;;;5137312;27;20100;-89
2023/01/10 01:32:39;;;;;;;0.28;0.10;;;5.90;99.90;;;;;;5108439;27;20054;-88
2023/01/10 01:35:32;;;;;;;0.95;0.47;;;5.80;99.90;;;;;;5119566;27;20051;-89
2023/01/10 01:38:10;;;;;;;0.00;0.00;;;5.80;99.90;;;;;;5112836;27;20139;-89
2023/01/10 01:41:12;;;;;;;;;;;;;;;;;;;;;
2023/01/10 01:47:25;;;;;;;0.00;0.00;;;5.70;99.90;;;;;;5137209;27;20082;-89
2023/01/10 01:51:04;;;;;;;;;;;;;;;;;;;;;
2023/01/10 01:54:06;;;;;;;;;;;;;;;;;;;;;
2023/01/10 02:00:01;;;;;;;0.10;0.10;;;5.70;99.90;;;;;;5119464;27;20463;-88
2023/01/10 02:02:57;;;;;;;0.00;0.00;;;5.80;99.90;;;;;;5120117;27;20051;-88
2023/01/10 02:05:44;;;;;;;0.05;0.05;;;5.60;99.90;;;;;;5136597;27;20549;-88
2023/01/10 02:08:13;;;;;;;11.27;1.65;;;5.70;99.90;;;;;;5119544;27;20107;-89
2023/01/10 02:11:07;;;;;;;;;;;;;;;;;;;;;
2023/01/10 02:16:38;;;;;;;;;;;;;;;;;;;;;
2023/01/10 02:19:42;;;;;;;0.00;0.00;;;5.60;99.90;;;;;;5104953;27;20066;-89
2023/01/10 02:22:45;;;;;;;0.32;0.32;;;5.60;99.90;;;;;;5118266;27;20078;-89
2023/01/10 02:25:26;;;;;;;0.00;0.00;;;5.60;99.90;;;;;;5118898;27;20183;-89
2023/01/10 02:28:28;;;;;;;0.00;0.00;;;5.60;99.90;;;;;;5118973;27;20046;-88
2023/01/10 02:31:28;;;;;;;0.00;0.00;;;5.50;99.90;;;;;;5118719;27;20074;-89
2023/01/10 02:34:12;;;;;;;0.55;0.32;;;5.50;99.90;;;;;;5118868;27;20054;-89
2023/01/10 02:36:58;;;;;;;1.65;0.55;;;5.50;99.90;;;;;;5120491;27;20047;-89
2023/01/10 02:40:06;;;;;;;;;;;;;;;;;;;;;
2023/01/10 02:46:27;;;;;;;;;;;;;;;;;;;;;
2023/01/10 02:49:06;;;;;;;;;;;;;;;;;;;;;
2023/01/10 02:54:35;;;;;;;0.00;0.00;;;5.30;99.90;;;;;;5127780;27;20051;-89
2023/01/10 03:01:08;;;;;;;;;;;;;;;;;;;;;
2023/01/10 03:04:09;;;;;;;;;;;;;;;;;;;;;
2023/01/10 03:10:16;;;;;;;;;;;;;;;;;;;;;
2023/01/10 03:13:06;;;;;;;0.10;0.10;;;5.20;99.90;;;;;;5111396;27;20062;-89
2023/01/10 03:15:39;;;;;;;2.55;0.15;;;5.30;99.90;;;;;;5122050;27;20478;-89
2023/01/10 03:18:40;;;;;;;0.47;0.25;;;5.20;99.90;;;;;;5121473;27;20428;-88
2023/01/10 03:21:23;;;;;;;1.55;0.70;;;5.50;99.90;;;;;;5122664;27;20069;-89
2023/01/10 03:24:09;;;;;;;;;;;;;;;;;;;;;
2023/01/10 03:27:14;;;;;;;0.00;0.00;;;5.20;99.90;;;;;;5138579;27;20116;-89
2023/01/10 03:30:09;;;;;;;0.00;0.00;;;5.20;99.90;;;;;;5138666;27;20154;-89
2023/01/10 03:32:55;;;;;;;9.32;0.57;;;5.20;99.90;;;;;;5138272;27;20486;-89
2023/01/10 03:35:37;;;;;;;0.00;0.00;;;5.30;99.90;;;;;;5121141;27;20053;-89
2023/01/10 03:38:17;;;;;;;0.00;0.00;;;5.30;99.90;;;;;;5120961;27;20446;-89
2023/01/10 03:41:25;;;;;;;0.10;0.10;;;5.30;99.90;;;;;;5139033;27;20197;-89
2023/01/10 03:47:02;;;;;;;0.10;0.10;;;5.40;99.90;;;;;;5139283;27;20046;-89
2023/01/10 03:49:47;;;;;;;0.00;0.00;;;5.40;99.90;;;;;;5121318;27;20092;-89
2023/01/10 03:52:25;;;;;;;0.55;0.15;;;5.40;99.90;;;;;;5122442;27;20501;-89
2023/01/10 03:55:07;;;;;;;0.00;0.00;;;5.40;99.90;;;;;;5130322;27;20050;-88
2023/01/10 03:57:50;;;;;;;;;;;;;;;;;;;;;
2023/01/10 04:00:23;;;;;;;0.00;0.00;;;5.50;99.90;;;;;;5148023;27;19926;-89
2023/01/10 04:02:51;;;;;;;0.00;0.00;;;5.40;99.90;;;;;;5132822;27;20050;-89
2023/01/10 04:05:34;;;;;;;;;;;;;;;;;;;;;
2023/01/10 04:08:18;;;;;;;0.00;0.00;;;5.40;99.90;;;;;;5142488;27;20046;-89
2023/01/10 04:10:50;;;;;;;0.00;0.00;;;5.40;99.90;;;;;;5124749;27;20436;-89
2023/01/10 04:13:41;;;;;;;0.00;0.00;;;5.40;99.90;;;;;;5125226;27;20058;-89
2023/01/10 04:16:24;;;;;;;1.20;0.43;;;5.40;99.90;;;;;;5125361;27;20039;-89
2023/01/10 04:19:05;;;;;;;;;;;;;;;;;;;;;
2023/01/10 04:21:57;;;;;;;0.00;0.00;;;5.50;99.90;;;;;;5114630;27;20129;-89
2023/01/10 04:24:43;;;;;;;;;;;;;;;;;;;;;
2023/01/10 04:27:11;;;;;;;0.00;0.00;;;5.50;99.90;;;;;;5141997;27;20046;-89
2023/01/10 04:29:48;;;;;;;0.20;0.15;;;5.60;99.90;;;;;;5107245;27;20051;-88
2023/01/10 04:32:21;;;;;;;0.00;0.00;;;5.60;99.90;;;;;;5107436;27;20039;-89
2023/01/10 04:34:54;;;;;;;0.00;0.00;;;5.60;99.90;;;;;;5107931;27;20042;-88
2023/01/10 04:37:20;;;;;;;0.45;0.10;;;5.70;99.90;;;;;;5123781;27;20076;-89
2023/01/10 04:40:12;;;;;;;0.00;0.00;;;5.70;99.90;;;;;;5125284;27;20482;-89
2023/01/10 04:42:45;;;;;;;0.43;0.25;;;5.70;99.90;;;;;;5124034;27;20134;-89
2023/01/10 04:45:26;;;;;;;;;;;;;;;;;;;;;
2023/01/10 04:47:55;;;;;;;0.03;0.00;;;5.70;99.90;;;;;;5141590;27;20049;-88
2023/01/10 04:50:25;;;;;;;0.00;0.00;;;5.70;99.90;;;;;;5107548;27;20099;-89
2023/01/10 04:52:57;;;;;;;0.00;0.00;;;5.90;99.90;;;;;;5107268;27;20050;-89
2023/01/10 04:55:46;;;;;;;;;;;;;;;;;;;;;
2023/01/10 04:58:24;;;;;;;0.00;0.00;;;5.70;99.90;;;;;;5110239;27;20046;-89
2023/01/10 05:00:57;;;;;;;0.10;0.05;;;5.70;99.90;;;;;;5107464;27;20107;-89
2023/01/10 05:03:41;;;;;;;;;;;;;;;;;;;;;
2023/01/10 05:06:43;;;;;;;0.00;0.00;;;5.80;99.90;;;;;;5140429;27;20046;-89
2023/01/10 05:09:17;;;;;;;0.00;0.00;;;5.80;99.90;;;;;;5124031;27;20251;-88
2023/01/10 05:12:25;;;;;;;0.00;0.00;;;5.80;99.90;;;;;;5141246;27;20053;-89
2023/01/10 05:15:22;;;;;;;0.60;0.30;;;5.80;99.90;;;;;;5110962;27;20490;-89
2023/01/10 05:18:16;;;;;;;0.00;0.00;;;5.80;99.90;;;;;;5139318;27;20045;-88
2023/01/10 05:21:00;;;;;;;0.10;0.10;;;5.90;99.90;;;;;;5127332;27;20047;-89
2023/01/10 05:23:47;;;;;;;0.00;0.00;;;5.90;99.90;;;;;;5124893;27;20051;-88
2023/01/10 05:26:38;;;;;;;0.10;0.08;;;5.90;99.90;;;;;;5124296;27;20488;-89
2023/01/10 05:29:06;;;;;;;0.25;0.25;;;5.90;99.90;;;;;;5141069;27;20081;-89
2023/01/10 05:31:37;;;;;;;0.65;0.65;;;5.90;99.90;;;;;;5124480;27;20053;-89
2023/01/10 05:34:12;;;;;;;1.10;0.32;;;6.20;99.90;;;;;;5107336;27;20045;-89
2023/01/10 05:36:46;;;;;;;1.25;0.65;;;5.90;99.90;;;;;;5107198;27;20039;-89
2023/01/10 05:39:24;;;;;;;0.10;0.10;;;5.80;99.90;;;;;;5140991;27;20082;-89
2023/01/10 05:42:08;;;;;;;;;;;;;;;;;;;;;
2023/01/10 05:44:46;;;;;;;0.05;0.00;;;5.90;99.90;;;;;;5140786;27;20065;-89
2023/01/10 05:47:15;;;;;;;0.52;0.00;;;5.90;99.90;;;;;;5123758;27;20045;-88
2023/01/10 05:49:54;;;;;;;0.00;0.00;;;5.90;99.90;;;;;;5123507;27;20041;-89
2023/01/10 05:52:40;;;;;;;0.00;0.00;;;6.00;99.90;;;;;;5108071;27;20058;-88
2023/01/10 05:55:19;;;;;;;0.00;0.00;;;5.90;99.90;;;;;;5124062;27;20443;-89
2023/01/10 05:58:38;;;;;;;0.05;0.00;;;5.90;99.90;;;;;;5107728;27;20039;-89
2023/01/10 06:01:10;;;;;;;0.68;0.47;;;5.90;99.90;;;;;;5134570;27;20049;-89
2023/01/10 06:04:01;;;;;;;0.00;0.00;;;5.90;99.90;;;;;;5123555;27;20050;-89
2023/01/10 06:06:49;;;;;;;2.83;0.70;;;5.90;99.90;;;;;;5112888;27;20050;-88
2023/01/10 06:12:21;;;;;;;0.00;0.00;;;5.90;99.90;;;;;;5140034;27;20057;-89
2023/01/10 06:14:52;;;;;;;1.00;0.73;;;6.00;99.90;;;;;;5122981;27;20043;-88
2023/01/10 06:17:59;;;;;;;0.00;0.00;;;5.90;99.90;;;;;;5104885;27;20038;-89
2023/01/10 06:23:59;;;;;;;0.00;0.00;;;5.90;99.90;;;;;;5132139;27;20050;-89
2023/01/10 06:30:23;;;;;;;0.00;0.00;;;5.80;99.90;;;;;;5140039;27;20097;-89
2023/01/10 06:32:53;;;;;;;0.00;0.00;;;5.80;99.90;;;;;;5126394;27;20565;-88
2023/01/10 06:35:24;;;;;;;0.15;0.15;;;5.70;99.90;;;;;;5106623;27;20045;-88
2023/01/10 06:41:16;;;;;;;0.10;0.00;;;5.70;99.90;;;;;;5139437;27;20379;-88
2023/01/10 06:43:54;;;;;;;0.00;0.00;;;5.80;99.90;;;;;;5121153;27;20145;-88
2023/01/10 06:47:13;;;;;;;;;;;;;;;;;;;;;
2023/01/10 06:53:29;;;;;;;0.10;0.10;;;5.60;99.90;;;;;;5114344;27;20161;-89
2023/01/10 06:56:02;;;;;;;1.25;0.85;;;5.60;99.90;;;;;;5105213;27;20134;-89
2023/01/10 07:02:18;;;;;;;1.15;0.68;;;5.70;99.90;;;;;;5130423;27;20047;-88
2023/01/10 07:08:13;;;;;;;2.50;0.80;;;5.50;99.90;;;;;;5138624;27;20051;-87
2023/01/10 07:10:50;;;;;;;0.17;0.17;;;5.50;99.90;;;;;;5125391;27;20397;-87
2023/01/10 07:13:19;;;;;;;0.00;0.00;;;5.40;99.90;;;;;;5121619;27;20474;-87
2023/01/10 07:15:52;;;;;;;0.00;0.00;;;5.40;99.90;;;;;;5121783;27;20107;-88
2023/01/10 07:18:41;;;;;;;;;;;;;;;;;;;;;
2023/01/10 07:21:19;;;;;;;0.52;0.22;;;5.40;99.90;;;;;;5123139;27;20057;-88
2023/01/10 07:24:22;;;;;;;0.00;0.00;;;5.50;99.90;;;;;;5123630;27;20039;-88
2023/01/10 07:27:03;;;;;;;;;;;;;;;;;;;;;
2023/01/10 07:29:41;;;;;;;;;;;;;;;;;;;;;
2023/01/10 07:32:26;;;;;;;0.00;0.00;;;5.60;99.90;;;;;;5138795;27;20049;-88
2023/01/10 07:35:24;;;;;;;0.57;0.00;;;5.60;99.90;;;;;;5121208;27;20474;-87
2023/01/10 07:38:02;;;;;;;;;;;;;;;;;;;;;
2023/01/10 07:40:47;;;;;;;;;;;;;;;;;;;;;
2023/01/10 07:43:18;;;;;;;0.00;0.00;;;5.60;99.90;;;;;;5094935;28;20498;-88
2023/01/10 07:46:11;;;;;;;0.22;0.00;;;5.60;99.90;;;;;;5061502;28;20040;-88
2023/01/10 07:48:55;;;;;;;0.52;0.52;;;5.70;99.90;;;;;;5077324;28;20384;-88
2023/01/10 07:51:34;;;;;;;;;;;;;;;;;;;;;
2023/01/10 07:54:18;;;;;;;;;;;;;;;;;;;;;
2023/01/10 07:56:54;;;;;;;0.22;0.22;;;5.60;99.90;;;;;;5079058;28;20032;-88
2023/01/10 07:59:22;;;;;;;0.00;0.00;;;5.80;99.90;;;;;;5077024;28;20036;-88
2023/01/10 08:02:00;;;;;;;;;;;;;;;;;;;;;
2023/01/10 08:05:07;;;;;;;0.00;0.00;;;5.70;99.90;;;;;;5078787;28;20055;-89
2023/01/10 08:07:37;;;;;;;0.38;0.28;;;5.90;99.90;;;;;;5076565;28;20136;-88
2023/01/10 08:10:44;;;;;;;0.00;0.00;;;5.70;99.90;;;;;;5060887;28;20056;-88
2023/01/10 08:13:39;;;;;;;0.00;0.00;;;5.70;99.90;;;;;;5077278;28;20044;-89
2023/01/10 08:16:20;;;;;;;;;;;;;;;;;;;;;
2023/01/10 08:19:06;;;;;;;0.03;0.00;;;5.70;99.90;;;;;;5093941;28;20079;-88
2023/01/10 08:21:37;;;;;;;0.10;0.10;;;5.70;99.90;;;;;;5080892;28;20048;-88
2023/01/10 08:24:07;;;;;;;0.13;0.13;;;5.70;99.90;;;;;;5084253;28;20027;-87
2023/01/10 08:26:52;;;;;;;0.13;0.13;;;5.80;99.90;;;;;;5097094;28;20047;-89
2023/01/10 08:29:26;;;;;;;0.27;0.27;;;5.80;99.90;;;;;;5081679;28;20098;-88
2023/01/10 08:32:05;;;;;;;;;;;;;;;;;;;;;
2023/01/10 08:34:49;;;;;;;;;;;;;;;;;;;;;
2023/01/10 08:40:04;;;;;;;0.00;0.00;;;5.90;99.90;;;;;;5112105;27;20082;-89
2023/01/10 08:42:35;;;;;;;0.88;0.30;;;5.90;99.90;;;;;;5104216;27;20043;-89
2023/01/10 08:45:04;;;;;;;0.20;0.20;;;5.90;99.90;;;;;;5103975;27;20050;-88
2023/01/10 08:47:40;;;;;;;;;;;;;;;;;;;;;
2023/01/10 08:52:59;;;;;;;0.00;0.00;;;6.00;99.90;;;;;;5121485;27;20047;-87
2023/01/10 08:55:30;;;;;;;0.00;0.00;;;6.10;99.90;;;;;;5120769;27;20066;-87
2023/01/10 08:58:10;;;;;;;0.00;0.00;;;6.10;99.90;;;;;;5103159;27;20035;-87
2023/01/10 09:00:44;;;;;;;0.00;0.00;;;6.10;99.90;;;;;;5121890;27;20417;-89
2023/01/10 09:03:33;;;;;;;1.45;0.35;;;6.20;99.90;;;;;;5103840;27;20086;-87
2023/01/10 09:06:13;;;;;;;;;;;;;;;;;;;;;
2023/01/10 09:09:00;;;;;;;;;;;6.30;99.90;;;;;;5121347;27;20493;-88
2023/01/10 09:11:35;;;;;;;0.08;0.08;;;6.60;99.90;;;;;;5104054;27;19969;-89
2023/01/10 09:14:23;;;;;;;0.90;0.30;;;6.30;99.90;;;;;;5102743;27;20043;-89
2023/01/10 09:17:24;;;;;;;0.00;0.00;;;6.40;99.90;;;;;;5087257;27;20132;-89
2023/01/10 09:20:05;;;;;;;0.10;0.10;;;6.40;99.90;;;;;;5107404;27;20050;-89
2023/01/10 09:22:45;;;;;;;0.00;0.00;;;6.50;99.90;;;;;;5089144;27;20050;-88
2023/01/10 09:25:36;;;;;;;0.00;0.00;;;6.50;99.90;;;;;;5070521;27;20053;-89
2023/01/10 09:28:11;;;;;;;0.00;0.00;;;6.50;99.90;;;;;;5087911;27;20047;-89
2023/01/10 09:31:02;;;;;;;0.10;0.10;;;6.50;99.90;;;;;;5104226;27;20051;-89
2023/01/10 09:33:52;;;;;;;0.00;0.00;;;6.60;99.90;;;;;;5088698;27;20043;-88
2023/01/10 09:36:29;;;;;;;0.00;0.00;;;6.70;99.90;;;;;;5086321;27;20044;-88
2023/01/10 09:39:39;;;;;;;;;;;;;;;;;;;;;
2023/01/10 09:42:24;;;;;;;0.10;0.10;;;6.60;99.90;;;;;;5099114;28;20130;-89
2023/01/10 09:45:20;;;;;;;;;;;;;;;;;;;;;
2023/01/10 09:48:19;;;;;;;;;;;;;;;;;;;;;
2023/01/10 09:51:08;;;;;;;0.00;0.00;;;6.80;99.90;;;;;;5116351;28;20035;-88
2023/01/10 09:53:47;;;;;;;0.00;0.00;;;6.80;99.90;;;;;;5100493;28;20044;-89
2023/01/10 09:56:30;;;;;;;;;;;;;;;;;;;;;
2023/01/10 09:59:01;;;;;;;2.67;0.25;;;6.90;99.90;;;;;;5124547;28;20406;-90
2023/01/10 10:01:53;;;;;;;1.02;1.02;;;7.00;99.90;;;;;;5119234;28;20040;-89
2023/01/10 10:04:48;;;;;;;0.40;0.35;;;7.00;99.90;;;;;;5106478;28;20052;-90
2023/01/10 10:07:33;;;;;;;0.00;0.00;;;7.00;99.90;;;;;;5086258;28;20476;-91
2023/01/10 10:10:15;;;;;;;0.45;0.15;;;7.00;99.90;;;;;;5069837;28;20087;-90
2023/01/10 10:13:02;;;;;;;0.57;0.57;;;7.10;99.90;;;;;;5098756;28;20046;-89
2023/01/10 10:16:04;;;;;;;;;;;;;;;;;;;;;
2023/01/10 10:19:01;;;;;;;;;;;;;;;;;;;;;
2023/01/10 10:22:20;;;;;;;0.40;0.35;;;7.20;99.90;;;;;;5115457;28;20053;-90
2023/01/10 10:25:15;;;;;;;;;;;;;;;;;;;;;
2023/01/10 10:28:13;;;;;;;;;;;;;;;;;;;;;
2023/01/10 10:31:15;;;;;;;;;;;;;;;;;;;;;
2023/01/10 10:34:09;;;;;;;0.00;0.00;;;7.50;99.90;;;;;;5107664;28;20057;-89
2023/01/10 10:36:58;;;;;;;0.00;0.00;;;7.30;99.90;;;;;;5115598;28;20046;-90
2023/01/10 10:39:48;;;;;;;2.13;0.73;;;7.30;99.90;;;;;;5098097;28;20051;-89
2023/01/10 10:42:27;;;;;;;;;;;;;;;;;;;;;
2023/01/10 10:45:42;;;;;;;0.10;0.10;;;7.30;99.90;;;;;;5115254;28;20047;-89
2023/01/10 10:48:38;;;;;;;0.00;0.00;;;7.30;99.90;;;;;;5104859;28;20048;-90
2023/01/10 10:51:58;;;;;;;5.10;0.52;;;7.30;99.90;;;;;;5099289;28;20047;-90
2023/01/10 10:55:06;;;;;;;0.10;0.00;;;7.30;99.90;;;;;;5020873;28;20164;-90
2023/01/10 10:57:54;;;;;;;0.00;0.00;;;7.30;99.90;;;;;;5050160;28;20044;-90
2023/01/10 11:03:19;;;;;;;0.28;0.28;;;7.30;99.90;;;;;;5104301;28;20078;-90
2023/01/10 11:06:14;;;;;;;;;;;;;;;;;;;;;
2023/01/10 11:12:21;;;;;;;0.00;0.00;;;7.30;99.90;;;;;;5069969;28;20055;-90
2023/01/10 11:15:28;;;;;;;0.30;0.30;;;7.30;99.90;;;;;;5100923;28;20057;-87
2023/01/10 11:18:37;;;;;;;;;;;;;;;;;;;;;
2023/01/10 11:21:27;;;;;;;;;;;;;;;;;;;;;
2023/01/10 11:27:54;;;;;;;;;;;;;;;;;;;;;
2023/01/10 11:34:09;;;;;;;0.00;0.00;;;7.30;99.90;;;;;;5102815;28;20047;-90
2023/01/10 11:37:31;;;;;;;;;;;;;;;;;;;;;
2023/01/10 11:40:31;;;;;;;0.00;0.00;;;7.30;99.90;;;;;;5108917;28;20040;-91
2023/01/10 11:44:00;;;;;;;0.00;0.00;;;7.30;99.90;;;;;;5098855;28;20487;-91
2023/01/10 11:46:38;;;;;;;;;;;;;;;;;;;;;
2023/01/10 11:49:33;;;;;;;0.20;0.10;;;7.30;99.90;;;;;;5116835;28;20353;-90
2023/01/10 11:52:31;;;;;;;0.32;0.32;;;7.30;99.90;;;;;;5115958;28;20079;-91
2023/01/10 11:58:39;;;;;;;;;;;;;;;;;;;;;
2023/01/10 12:01:58;;;;;;;0.08;0.08;;;7.30;99.90;;;;;;5116456;28;20048;-91
2023/01/10 12:05:01;;;;;;;5.70;0.47;;;7.30;99.90;;;;;;5095391;28;20052;-92
2023/01/10 12:08:05;;;;;;;0.45;0.17;;;7.30;99.90;;;;;;5111147;28;20286;-91
2023/01/10 12:13:59;;;;;;;;;;;;;;;;;;;;;
2023/01/10 12:16:36;;;;;;;0.00;0.00;;;7.20;99.90;;;;;;5118370;28;20063;-91
2023/01/10 12:19:24;;;;;;;;;;;;;;;;;;;;;
2023/01/10 12:22:23;;;;;;;0.00;0.00;;;7.20;99.90;;;;;;5139600;27;20506;-91
2023/01/10 12:24:53;;;;;;;0.17;0.13;;;7.20;99.90;;;;;;5122632;27;20043;-91
2023/01/10 12:27:37;;;;;;;4.22;0.77;;;7.20;99.90;;;;;;5121717;27;20558;-92
2023/01/10 12:30:34;;;;;;;;;;;;;;;;;;;;;
2023/01/10 12:33:13;;;;;;;0.70;0.22;;;7.00;99.90;;;;;;5141310;27;20047;-89
2023/01/10 12:36:20;;;;;;;0.10;0.10;;;7.10;99.90;;;;;;5139884;27;20367;-88
2023/01/10 12:39:15;;;;;;;0.00;0.00;;;7.10;99.90;;;;;;5120349;27;20130;-86
2023/01/10 12:45:31;;;;;;;0.63;0.40;;;7.00;99.90;;;;;;5139992;27;20047;-91
2023/01/10 12:48:23;;;;;;;0.00;0.00;;;6.90;99.90;;;;;;5138808;27;20126;-90
2023/01/10 12:54:36;;;;;;;3.15;0.75;;;7.00;99.90;;;;;;5135634;27;20048;-90
2023/01/10 12:57:47;;;;;;;2.53;1.08;;;7.00;99.90;;;;;;5120823;27;20047;-90
2023/01/10 13:00:44;;;;;;;0.20;0.20;;;7.00;99.90;;;;;;5097353;28;20048;-91
2023/01/10 13:03:48;;;;;;;5.28;1.20;;;7.10;99.90;;;;;;5102693;27;20077;-91
2023/01/10 13:07:09;;;;;;;0.35;0.35;;;7.00;99.90;;;;;;5104538;28;20503;-90
2023/01/10 13:10:20;;;;;;;0.05;0.05;;;7.00;99.90;;;;;;5074776;28;20024;-90
2023/01/10 13:13:03;;;;;;;0.00;0.00;;;7.10;99.90;;;;;;5099848;27;20054;-91
2023/01/10 13:16:00;;;;;;;0.32;0.32;;;7.00;99.90;;;;;;5118735;28;20039;-91
2023/01/10 13:18:33;;;;;;;0.30;0.22;;;7.00;99.90;;;;;;5089910;28;20036;-91
2023/01/10 13:21:14;;;;;;;;;;;;;;;;;;;;;
2023/01/10 13:23:49;;;;;;;0.00;0.00;;;7.00;99.90;;;;;;5122486;27;20058;-91
2023/01/10 13:26:31;;;;;;;;;;;;;;;;;;;;;
2023/01/10 13:29:10;;;;;;;;;;;;;;;;;;;;;
2023/01/10 13:31:55;;;;;;;;;;;;;;;;;;;;;
2023/01/10 13:43:17;;;;;;;0.10;0.10;;;6.90;99.90;;;;;;5118571;27;20055;-91
2023/01/10 13:44:24;;;;;;;0.55;0.43;;;6.90;99.90;;;;;;5132410;27;20039;-91
2023/01/10 13:47:15;;;;;;;;;;;;;;;;;;;;;
2023/01/10 13:49:46;;;;;;;1.45;1.35;;;6.90;99.90;;;;;;5102203;27;20050;-92
2023/01/10 13:53:01;;;;;;;;;;;;;;;;;;;;;
2023/01/10 13:55:55;;;;;;;;;;;;;;;;;;;;;
2023/01/10 14:04:34;;;;;;;0.00;0.00;;;6.80;99.90;;;;;;5113304;28;20070;-92
2023/01/10 14:07:42;;;;;;;;;;;;;;;;;;;;;
2023/01/10 14:10:38;;;;;;;2.28;1.00;;;6.80;99.90;;;;;;5107346;27;20066;-92
2023/01/10 14:16:39;;;;;;;4.20;1.48;;;6.80;99.90;;;;;;5102771;28;20050;-91
2023/01/10 14:19:57;;;;;;;10.73;0.98;;;6.90;99.90;;;;;;5095322;28;20479;-91
2023/01/10 14:22:50;;;;;;;0.00;0.00;;;6.80;99.90;;;;;;5078663;28;20047;-90
2023/01/10 14:25:52;;;;;;;0.00;0.00;;;6.80;99.90;;;;;;5081485;28;20043;-91
2023/01/10 14:28:42;;;;;;;;;;;;;;;;;;;;;
2023/01/10 14:31:42;;;;;;;;;;;;;;;;;;;;;
2023/01/10 14:35:19;;;;;;;;;;;;;;;;;;;;;
2023/01/10 14:38:20;;;;;;;0.00;0.00;;;6.80;99.90;;;;;;5111348;28;20048;-92
2023/01/10 14:41:13;;;;;;;0.20;0.20;;;6.70;99.90;;;;;;5077593;28;20151;-91
2023/01/10 14:43:53;;;;;;;0.00;0.00;;;6.80;99.90;;;;;;5079558;28;20044;-92
2023/01/10 14:46:38;;;;;;;0.55;0.55;;;6.80;99.90;;;;;;5079777;28;20079;-91
2023/01/10 14:49:34;;;;;;;;;;;;;;;;;;;;;
2023/01/10 14:52:33;;;;;;;0.73;0.28;;;6.80;99.90;;;;;;5093584;28;20056;-91
2023/01/10 14:55:39;;;;;;;0.00;0.00;;;6.80;99.90;;;;;;5078979;28;20051;-90
2023/01/10 14:58:46;;;;;;;;;;;;;;;;;;;;;
2023/01/10 15:01:28;;;;;;;2.80;1.08;;;6.80;99.90;;;;;;5095129;28;20043;-92
2023/01/10 15:04:22;;;;;;;0.08;0.08;;;6.80;99.90;;;;;;5078277;28;20116;-91
2023/01/10 15:07:26;;;;;;;;;;;;;;;;;;;;;
2023/01/10 15:10:19;;;;;;;0.90;0.45;;;6.80;99.90;;;;;;5101016;28;20044;-91
2023/01/10 15:13:15;;;;;;;0.43;0.30;;;6.70;99.90;;;;;;5069053;28;20533;-91
2023/01/10 15:15:56;;;;;;;0.00;0.00;;;6.80;99.90;;;;;;5079073;28;20044;-92
2023/01/10 15:18:49;;;;;;;0.03;0.03;;;6.80;99.90;;;;;;5064337;28;20067;-91
2023/01/10 15:21:27;;;;;;;0.00;0.00;;;6.80;99.90;;;;;;5079985;28;20131;-92
2023/01/10 15:27:16;;;;;;;0.10;0.10;;;6.90;99.90;;;;;;5072494;28;20052;-91
2023/01/10 15:29:48;;;;;;;0.00;0.00;;;6.90;99.90;;;;;;5078980;28;20506;-91
2023/01/10 15:32:24;;;;;;;0.20;0.20;;;6.90;99.90;;;;;;5079331;28;20083;-92
2023/01/10 15:35:33;;;;;;;0.00;0.00;;;6.90;99.90;;;;;;5080099;28;20055;-92
2023/01/10 15:38:25;;;;;;;;;;;;;;;;;;;;;
2023/01/10 15:44:51;;;;;;;0.82;0.38;;;6.90;99.90;;;;;;5085501;28;20135;-91
2023/01/10 15:51:12;;;;;;;9.48;0.45;;;7.00;99.90;;;;;;5082378;28;20052;-91
2023/01/10 16:04:48;;;;;;;;;;;;;;;;;;;;;
2023/01/10 16:15:19;;;;;;;;;;;;;;;;;;;;;
2023/01/10 16:30:00;;;;;;;;;;;;;;;;;;;;;
2023/01/10 18:15:51;;;;;;;1.65;0.45;;;6.40;99.90;;;;;;4776671;24;20100;-87
2023/01/10 18:18:21;;;;;;;0.00;0.00;;;6.40;99.90;;;;;;4756281;30;20055;-87
2023/01/10 18:20:51;;;;;;;0.00;0.00;;;6.40;99.90;;;;;;4741658;30;20104;-87
2023/01/10 18:23:24;;;;;;;0.65;0.45;;;6.40;99.90;;;;;;4756630;30;20524;-87
2023/01/10 18:26:13;;;;;;;0.10;0.10;;;6.40;99.90;;;;;;4742009;30;20056;-87
2023/01/10 18:28:45;;;;;;;0.00;0.00;;;6.40;99.90;;;;;;4771624;30;20056;-88
2023/01/10 18:31:19;;;;;;;0.00;0.00;;;6.40;99.90;;;;;;4741650;30;20063;-87
2023/01/10 18:33:49;;;;;;;0.00;0.00;;;6.40;99.90;;;;;;4741921;30;20058;-88
2023/01/10 18:36:21;;;;;;;0.00;0.00;;;6.40;99.90;;;;;;4741935;30;20055;-87
2023/01/10 18:38:50;;;;;;;0.10;0.10;;;6.40;99.90;;;;;;4741224;30;20048;-87
2023/01/10 18:41:21;;;;;;;0.00;0.00;;;6.40;99.90;;;;;;4741135;30;20059;-87
2023/01/10 18:43:50;;;;;;;0.00;0.00;;;6.40;99.90;;;;;;4741472;30;20064;-88
